Cerepovec, Russia
Current Conditions -  °F | °C
As of 7:00 PM on Thursday 30 Oct 2014 (Local Time) from ULWC Reporting Station
Overcast Overcast  
Wind Chill: 38°   Ceiling: 2300
Heat Index: 41°   Visibility: 6mi
Dew Point: 32°   Wind: 4mph
Humidity: 70%   Direction: 270°W
Pressure: 29.97"   Gusts: NA
Location:  59.13°N, 37.88°E
Report Text: ULWC 301600Z 27002MPS 9999 BKN023 OVC/// 05/M00 Q1015 TEMPO4000 -SHRA SCT007 RMK QFE751/1002 SC060
Loading
Personal Weather Stations






























Interactive Weather Map
Tropical Storm Tracking
New forecast layout! Learn more

10-Day Weather Forecast

Advertisements
Track Severe Weather on mobile